createdAt,value
2023-04-30T00:00:27.746Z,7.49
2023-04-30T00:02:54.849Z,7.45
2023-04-30T00:05:21.773Z,7.40
2023-04-30T00:07:48.626Z,7.37
2023-04-30T00:10:15.590Z,7.38
2023-04-30T00:12:42.497Z,7.44
2023-04-30T00:15:09.793Z,7.44
2023-04-30T00:17:36.710Z,7.41
2023-04-30T00:20:04.363Z,7.37
2023-04-30T00:22:31.254Z,7.34
2023-04-30T00:24:58.240Z,7.32
2023-04-30T00:27:25.128Z,7.28
2023-04-30T00:29:52.301Z,7.24
2023-04-30T00:32:24.345Z,7.19
2023-04-30T00:34:51.686Z,7.14
2023-04-30T00:37:18.535Z,7.10
2023-04-30T00:39:45.472Z,7.03
2023-04-30T00:42:12.423Z,7.05
2023-04-30T00:44:39.320Z,7.13
2023-04-30T00:47:06.309Z,7.17
2023-04-30T00:49:33.409Z,7.15
2023-04-30T00:52:01.430Z,7.11
2023-04-30T00:54:28.418Z,7.07
2023-04-30T00:56:55.584Z,7.01
2023-04-30T00:59:22.405Z,6.96
2023-04-30T01:01:49.334Z,6.88
2023-04-30T01:04:16.223Z,6.79
2023-04-30T01:06:43.490Z,6.70
2023-04-30T01:09:10.629Z,6.64
2023-04-30T01:11:45.103Z,6.61
2023-04-30T01:14:25.406Z,6.65
2023-04-30T01:19:38.429Z,6.77
2023-04-30T01:22:05.671Z,6.74
2023-04-30T01:24:41.950Z,6.72
2023-04-30T01:27:46.466Z,6.66
2023-04-30T01:30:13.764Z,6.59
2023-04-30T01:32:40.776Z,6.50
2023-04-30T01:35:07.890Z,6.42
2023-04-30T01:37:51.702Z,6.34
2023-04-30T01:40:29.755Z,6.25
2023-04-30T01:43:05.271Z,6.16
2023-04-30T01:45:56.871Z,6.09
2023-04-30T01:48:42.918Z,6.10
2023-04-30T01:51:42.928Z,6.14
2023-04-30T01:54:24.402Z,6.13
2023-04-30T01:57:07.344Z,6.10
2023-04-30T01:59:38.970Z,6.06
2023-04-30T02:02:06.444Z,6.01
2023-04-30T02:04:33.460Z,5.96
2023-04-30T02:07:00.465Z,5.90
2023-04-30T02:09:27.715Z,5.84
2023-04-30T02:11:54.586Z,5.80
2023-04-30T02:14:21.482Z,5.74
2023-04-30T02:16:52.457Z,5.76
2023-04-30T02:19:19.369Z,5.82
2023-04-30T02:21:46.306Z,5.82
2023-04-30T02:24:13.232Z,5.81
2023-04-30T02:26:40.116Z,5.78
2023-04-30T02:35:55.280Z,5.63
2023-04-30T02:38:22.330Z,5.58
2023-04-30T02:40:49.281Z,5.57
2023-04-30T02:43:16.217Z,5.59
2023-04-30T02:45:43.295Z,5.64
2023-04-30T02:48:10.191Z,5.65
2023-04-30T02:50:37.095Z,5.64
2023-04-30T02:53:03.996Z,5.62
2023-04-30T02:55:32.968Z,5.58
2023-04-30T02:57:59.931Z,5.55
2023-04-30T03:00:27.323Z,5.50
2023-04-30T03:02:54.419Z,5.44
2023-04-30T03:05:21.679Z,5.38
2023-04-30T03:07:48.557Z,5.32
2023-04-30T03:10:16.326Z,5.28
2023-04-30T03:12:43.221Z,5.30
2023-04-30T03:15:10.845Z,5.35
2023-04-30T03:17:37.874Z,5.35
2023-04-30T03:20:05.214Z,5.32
2023-04-30T03:22:32.097Z,5.30
2023-04-30T03:24:59.065Z,5.29
2023-04-30T03:27:26.380Z,5.30
2023-04-30T03:29:53.351Z,5.28
2023-04-30T03:32:20.398Z,5.26
2023-04-30T03:34:47.389Z,5.22
2023-04-30T03:37:14.313Z,5.19
2023-04-30T03:39:41.416Z,5.23
2023-04-30T03:42:08.459Z,5.33
2023-04-30T03:44:35.740Z,5.38
2023-04-30T03:47:02.619Z,5.43
2023-04-30T03:49:29.458Z,5.45
2023-04-30T03:51:56.637Z,5.45
2023-04-30T03:54:23.606Z,5.43
2023-04-30T03:56:50.527Z,5.42
2023-04-30T03:59:17.579Z,5.42
2023-04-30T04:01:44.660Z,5.43
2023-04-30T04:06:58.386Z,5.47
2023-04-30T04:09:25.281Z,5.53
2023-04-30T04:11:52.236Z,5.64
2023-04-30T04:14:19.340Z,5.74
2023-04-30T04:16:46.989Z,5.82
2023-04-30T04:19:14.099Z,5.86
2023-04-30T04:21:41.041Z,5.88
2023-04-30T04:24:13.660Z,5.93
2023-04-30T04:26:41.597Z,5.97
2023-04-30T04:29:12.338Z,6.02
2023-04-30T04:31:41.797Z,6.06
2023-04-30T04:34:08.727Z,6.11
2023-04-30T04:36:36.826Z,6.23
2023-04-30T04:39:04.189Z,6.41
2023-04-30T04:41:32.924Z,6.56
2023-04-30T04:44:01.982Z,6.67
2023-04-30T04:46:30.426Z,6.77
2023-04-30T04:48:58.194Z,6.86
2023-04-30T04:51:25.168Z,6.94
2023-04-30T04:53:52.101Z,7.04
2023-04-30T04:56:19.148Z,7.16
2023-04-30T04:58:46.529Z,7.27
2023-04-30T05:01:13.608Z,7.34
2023-04-30T05:03:40.721Z,7.35
2023-04-30T05:06:07.926Z,7.41
2023-04-30T05:08:34.920Z,7.47
2023-04-30T05:11:01.975Z,7.50
2023-04-30T05:13:28.941Z,7.56
2023-04-30T05:15:56.576Z,7.65
2023-04-30T05:18:23.583Z,7.75
2023-04-30T05:20:50.743Z,7.85
2023-04-30T05:23:17.663Z,7.99
2023-04-30T05:25:44.518Z,8.14
2023-04-30T05:28:11.827Z,8.20
2023-04-30T05:30:38.848Z,8.23
2023-04-30T05:33:05.725Z,8.33
2023-04-30T05:35:36.255Z,8.46
2023-04-30T05:38:04.155Z,8.55
2023-04-30T05:40:31.241Z,8.61
2023-04-30T05:42:58.152Z,8.72
2023-04-30T05:45:25.121Z,8.84
2023-04-30T05:47:52.102Z,8.95
2023-04-30T05:50:19.153Z,9.08
2023-04-30T05:52:46.233Z,9.14
2023-04-30T05:55:13.516Z,9.18
2023-04-30T05:57:40.612Z,9.29
2023-04-30T06:00:08.251Z,9.41
2023-04-30T06:02:41.492Z,9.50
2023-04-30T06:05:09.107Z,9.55
2023-04-30T06:07:36.040Z,9.60
2023-04-30T06:10:03.458Z,9.70
2023-04-30T06:12:30.318Z,9.83
2023-04-30T06:14:57.696Z,9.95
2023-04-30T06:17:24.789Z,10.06
2023-04-30T06:19:52.065Z,10.19
2023-04-30T06:22:19.118Z,10.35
2023-04-30T06:24:46.025Z,10.50
2023-04-30T06:27:13.052Z,10.64
2023-04-30T06:29:40.137Z,10.79
2023-04-30T06:32:08.547Z,10.91
2023-04-30T06:34:36.542Z,10.97
2023-04-30T06:37:03.683Z,11.02
2023-04-30T06:39:30.890Z,11.06
2023-04-30T06:41:58.189Z,11.15
2023-04-30T06:44:25.446Z,11.27
2023-04-30T06:46:52.540Z,11.47
2023-04-30T06:49:19.549Z,11.69
2023-04-30T06:51:46.428Z,11.85
2023-04-30T06:54:14.448Z,12.00
2023-04-30T06:56:41.532Z,12.15
2023-04-30T06:59:08.995Z,12.29
2023-04-30T07:01:35.945Z,12.45
2023-04-30T07:04:02.957Z,12.57
2023-04-30T07:06:30.827Z,12.71
2023-04-30T07:08:57.898Z,12.86
2023-04-30T07:11:24.903Z,13.02
2023-04-30T07:13:51.833Z,13.15
2023-04-30T07:16:18.723Z,13.32
2023-04-30T07:18:48.977Z,13.46
2023-04-30T07:21:16.512Z,13.56
2023-04-30T07:23:44.337Z,13.56
2023-04-30T07:26:11.372Z,13.58
2023-04-30T07:28:38.251Z,13.67
2023-04-30T07:31:05.313Z,13.79
2023-04-30T07:33:32.203Z,13.96
2023-04-30T07:35:59.217Z,14.13
2023-04-30T07:38:26.033Z,14.28
2023-04-30T07:40:53.029Z,14.44
2023-04-30T07:43:19.940Z,14.62
2023-04-30T07:45:46.972Z,14.79
2023-04-30T07:48:13.895Z,14.98
2023-04-30T07:50:40.965Z,15.15
2023-04-30T07:53:09.636Z,15.24
2023-04-30T07:55:36.638Z,15.30
2023-04-30T07:58:04.563Z,15.36
2023-04-30T08:00:31.510Z,15.37
2023-04-30T08:02:59.265Z,15.30
2023-04-30T08:05:28.025Z,15.28
2023-04-30T08:07:54.895Z,15.33
2023-04-30T08:10:21.911Z,15.42
2023-04-30T08:12:48.994Z,15.56
2023-04-30T08:15:15.839Z,15.68
2023-04-30T08:17:43.021Z,15.79
2023-04-30T08:20:10.774Z,15.94
2023-04-30T08:22:37.626Z,16.13
2023-04-30T08:25:04.787Z,16.36
2023-04-30T08:27:32.468Z,16.56
2023-04-30T08:29:59.471Z,16.60
2023-04-30T08:32:26.436Z,16.47
2023-04-30T08:34:53.651Z,16.38
2023-04-30T08:37:20.920Z,16.41
2023-04-30T08:39:47.887Z,16.48
2023-04-30T08:42:15.325Z,16.52
2023-04-30T08:44:44.057Z,16.61
2023-04-30T08:47:13.351Z,16.73
2023-04-30T08:49:41.137Z,16.84
2023-04-30T08:52:08.614Z,16.87
2023-04-30T08:54:38.800Z,16.88
2023-04-30T08:57:05.919Z,16.91
2023-04-30T08:59:32.717Z,16.98
2023-04-30T09:02:03.012Z,17.05
2023-04-30T09:04:30.784Z,17.05
2023-04-30T09:06:59.462Z,17.14
2023-04-30T09:09:30.739Z,17.25
2023-04-30T09:12:16.898Z,17.31
2023-04-30T09:15:02.437Z,17.38
2023-04-30T09:17:29.789Z,17.44
2023-04-30T09:20:13.059Z,17.58
2023-04-30T09:22:40.310Z,17.74
2023-04-30T09:25:08.172Z,17.91
2023-04-30T09:27:35.089Z,18.03
2023-04-30T09:30:02.075Z,18.11
2023-04-30T09:32:29.192Z,18.12
2023-04-30T09:34:56.094Z,18.09
2023-04-30T09:37:22.985Z,18.08
2023-04-30T09:39:56.692Z,18.14
2023-04-30T09:42:23.836Z,18.23
2023-04-30T09:44:53.432Z,18.22
2023-04-30T09:47:21.092Z,18.04
2023-04-30T09:49:48.638Z,17.78
2023-04-30T09:52:15.756Z,17.62
2023-04-30T09:54:42.599Z,17.53
2023-04-30T09:57:11.193Z,17.54
2023-04-30T09:59:39.823Z,17.61
2023-04-30T10:02:07.742Z,17.75
2023-04-30T10:04:39.744Z,17.90
2023-04-30T10:07:15.406Z,17.90
2023-04-30T10:09:57.706Z,17.85
2023-04-30T10:12:27.444Z,17.94
2023-04-30T10:15:15.140Z,18.06
2023-04-30T10:17:42.636Z,18.05
2023-04-30T10:20:10.615Z,17.96
2023-04-30T10:22:37.492Z,18.01
2023-04-30T10:25:04.743Z,18.11
2023-04-30T10:27:33.184Z,18.18
2023-04-30T10:30:00.054Z,18.19
2023-04-30T10:32:32.375Z,18.20
2023-04-30T10:35:06.445Z,18.26
2023-04-30T10:38:22.094Z,18.28
2023-04-30T10:40:49.114Z,18.36
2023-04-30T10:43:18.829Z,18.31
2023-04-30T10:45:46.329Z,18.18
2023-04-30T10:48:14.679Z,18.12
2023-04-30T10:50:46.295Z,18.14
2023-04-30T10:53:16.223Z,18.20
2023-04-30T10:55:47.176Z,18.14
2023-04-30T10:58:36.834Z,18.03
2023-04-30T11:01:09.592Z,18.00
2023-04-30T11:03:37.386Z,17.98
2023-04-30T11:06:26.688Z,18.01
2023-04-30T11:08:53.626Z,18.13
2023-04-30T11:11:24.033Z,18.22
2023-04-30T11:14:01.441Z,18.24
2023-04-30T11:16:33.572Z,18.25
2023-04-30T11:19:11.641Z,18.27
2023-04-30T11:21:44.750Z,18.20
2023-04-30T11:24:11.713Z,18.17
2023-04-30T11:27:04.649Z,18.22
2023-04-30T11:29:32.154Z,18.27
2023-04-30T11:32:02.439Z,18.34
2023-04-30T11:34:29.383Z,18.35
2023-04-30T11:36:57.039Z,18.33
2023-04-30T11:39:24.798Z,18.35
2023-04-30T11:41:51.628Z,18.41
2023-04-30T11:44:27.853Z,18.44
2023-04-30T11:46:55.009Z,18.46
2023-04-30T11:49:21.915Z,18.44
2023-04-30T11:51:49.993Z,18.36
2023-04-30T11:54:16.883Z,18.30
2023-04-30T11:56:50.282Z,18.35
2023-04-30T11:59:17.687Z,18.45
2023-04-30T12:01:44.758Z,18.49
2023-04-30T12:04:16.760Z,18.47
2023-04-30T12:06:43.842Z,18.40
2023-04-30T12:09:11.803Z,18.37
2023-04-30T12:11:38.907Z,18.38
2023-04-30T12:14:12.917Z,18.38
2023-04-30T12:16:50.529Z,18.41
2023-04-30T12:19:22.050Z,18.44
2023-04-30T12:21:49.184Z,18.43
2023-04-30T12:24:17.244Z,18.39
2023-04-30T12:26:44.303Z,18.35
2023-04-30T12:29:15.905Z,18.36
2023-04-30T12:31:43.276Z,18.32
2023-04-30T12:34:12.324Z,18.29
2023-04-30T12:36:42.565Z,18.31
2023-04-30T12:39:13.700Z,18.32
2023-04-30T12:41:44.847Z,18.33
2023-04-30T12:44:22.201Z,18.33
2023-04-30T12:46:49.951Z,18.37
2023-04-30T12:49:43.351Z,18.43
2023-04-30T12:52:11.618Z,18.49
2023-04-30T12:54:38.901Z,18.58
2023-04-30T12:57:07.688Z,18.66
2023-04-30T12:59:52.011Z,18.67
2023-04-30T13:02:18.954Z,18.65
2023-04-30T13:04:45.962Z,18.61
2023-04-30T13:07:12.970Z,18.53
2023-04-30T13:09:39.860Z,18.47
2023-04-30T13:12:07.292Z,18.45
2023-04-30T13:14:34.226Z,18.38
2023-04-30T13:17:05.000Z,18.31
2023-04-30T13:19:31.928Z,18.30
2023-04-30T13:21:59.050Z,18.35
2023-04-30T13:24:28.169Z,18.40
2023-04-30T13:26:55.096Z,18.41
2023-04-30T13:29:22.019Z,18.34
2023-04-30T13:31:49.199Z,18.31
2023-04-30T13:34:16.434Z,18.33
2023-04-30T13:36:43.386Z,18.32
2023-04-30T13:39:10.333Z,18.29
2023-04-30T13:41:37.344Z,18.27
2023-04-30T13:44:04.378Z,18.27
2023-04-30T13:46:31.433Z,18.26
2023-04-30T13:48:58.486Z,18.25
2023-04-30T13:51:25.455Z,18.19
2023-04-30T13:53:52.823Z,18.16
2023-04-30T13:56:19.703Z,18.19
2023-04-30T13:58:46.700Z,18.24
2023-04-30T14:01:14.644Z,18.31
2023-04-30T14:03:41.719Z,18.38
2023-04-30T14:06:08.893Z,18.42
2023-04-30T14:08:35.745Z,18.46
2023-04-30T14:11:02.592Z,18.49
2023-04-30T14:13:29.794Z,18.48
2023-04-30T14:15:56.680Z,18.46
2023-04-30T14:18:23.623Z,18.40
2023-04-30T14:20:51.067Z,18.30
2023-04-30T14:23:18.014Z,18.22
2023-04-30T14:25:44.889Z,18.18
2023-04-30T14:28:12.104Z,18.21
2023-04-30T14:30:39.012Z,18.24
2023-04-30T14:33:06.661Z,18.26
2023-04-30T14:35:33.699Z,18.26
2023-04-30T14:38:00.722Z,18.25
2023-04-30T14:40:27.762Z,18.25
2023-04-30T14:42:54.638Z,18.23
2023-04-30T14:45:21.501Z,18.19
2023-04-30T14:47:48.866Z,18.12
2023-04-30T14:50:15.954Z,18.06
2023-04-30T14:52:43.176Z,18.00
2023-04-30T14:55:10.076Z,17.95
2023-04-30T14:57:36.950Z,17.93
2023-04-30T15:00:04.528Z,17.92
2023-04-30T15:02:31.739Z,17.89
2023-04-30T15:04:58.661Z,17.84
2023-04-30T15:07:25.593Z,17.77
2023-04-30T15:09:52.937Z,17.68
2023-04-30T15:12:20.207Z,17.61
2023-04-30T15:14:47.132Z,17.54
2023-04-30T15:17:14.258Z,17.46
2023-04-30T15:19:41.118Z,17.39
2023-04-30T15:22:07.965Z,17.33
2023-04-30T15:24:35.033Z,17.28
2023-04-30T15:27:02.009Z,17.22
2023-04-30T15:29:28.883Z,17.18
2023-04-30T15:31:55.890Z,17.14
2023-04-30T15:34:22.984Z,17.10
2023-04-30T15:36:49.940Z,17.07
2023-04-30T15:39:17.914Z,17.04
2023-04-30T15:41:45.028Z,17.01
2023-04-30T15:44:12.024Z,16.99
2023-04-30T15:46:38.927Z,16.97
2023-04-30T15:49:05.856Z,16.95
2023-04-30T15:51:35.277Z,16.93
2023-04-30T15:54:02.616Z,16.91
2023-04-30T15:56:29.566Z,16.87
2023-04-30T15:58:57.143Z,16.84
2023-04-30T16:01:24.123Z,16.82
2023-04-30T16:03:51.399Z,16.82
2023-04-30T16:06:18.601Z,16.80
2023-04-30T16:08:46.583Z,16.79
2023-04-30T16:11:13.708Z,16.78
2023-04-30T16:13:40.594Z,16.77
2023-04-30T16:16:08.908Z,16.76
2023-04-30T16:18:35.956Z,16.75
2023-04-30T16:21:02.826Z,16.75
2023-04-30T16:24:25.405Z,16.76
2023-04-30T16:26:52.306Z,16.72
2023-04-30T16:29:19.411Z,16.69
2023-04-30T16:31:47.974Z,16.66
2023-04-30T16:34:14.956Z,16.62
2023-04-30T16:36:42.013Z,16.57
2023-04-30T16:39:08.875Z,16.52
2023-04-30T16:41:35.823Z,16.47
2023-04-30T16:44:02.778Z,16.43
2023-04-30T16:46:29.887Z,16.40
2023-04-30T16:48:56.981Z,16.36
2023-04-30T16:51:23.934Z,16.33
2023-04-30T16:58:08.334Z,16.24
2023-04-30T17:00:35.783Z,16.21
2023-04-30T17:07:38.277Z,16.08
2023-04-30T17:10:06.326Z,16.02
2023-04-30T17:12:33.503Z,15.96
2023-04-30T17:16:22.361Z,15.90
2023-04-30T17:18:49.352Z,15.81
2023-04-30T17:21:16.326Z,15.76
2023-04-30T17:23:43.289Z,15.71
2023-04-30T17:26:10.203Z,15.64
2023-04-30T17:28:37.552Z,15.56
2023-04-30T17:31:07.283Z,15.46
2023-04-30T17:33:34.416Z,15.35
2023-04-30T17:36:01.463Z,15.26
2023-04-30T17:38:28.449Z,15.17
2023-04-30T17:40:58.012Z,15.08
2023-04-30T17:43:25.057Z,15.00
2023-04-30T17:45:53.612Z,14.92
2023-04-30T17:48:20.729Z,14.84
2023-04-30T17:50:47.824Z,14.78
2023-04-30T17:53:14.765Z,14.73
2023-04-30T17:55:41.841Z,14.74
2023-04-30T17:58:11.777Z,14.79
2023-04-30T18:00:39.545Z,14.81
2023-04-30T18:03:06.994Z,14.80
2023-04-30T18:05:35.621Z,14.77
2023-04-30T18:08:03.058Z,14.72
2023-04-30T18:10:30.009Z,14.65
2023-04-30T18:13:00.030Z,14.58
2023-04-30T18:15:27.626Z,14.53
2023-04-30T18:18:00.362Z,14.48
2023-04-30T18:20:28.244Z,14.43
2023-04-30T18:22:55.157Z,14.37
2023-04-30T18:25:22.816Z,14.31
2023-04-30T18:27:51.552Z,14.23
2023-04-30T18:30:18.593Z,14.20
2023-04-30T18:32:45.600Z,14.19
2023-04-30T18:35:12.508Z,14.15
2023-04-30T18:37:44.272Z,14.08
2023-04-30T18:40:11.790Z,13.98
2023-04-30T18:42:38.883Z,13.89
2023-04-30T18:45:06.820Z,13.79
2023-04-30T18:47:33.794Z,13.70
2023-04-30T18:50:00.733Z,13.64
2023-04-30T18:52:27.992Z,13.62
2023-04-30T18:54:55.561Z,13.63
2023-04-30T18:57:22.626Z,13.59
2023-04-30T18:59:49.542Z,13.54
2023-04-30T19:02:16.564Z,13.48
2023-04-30T19:04:43.537Z,13.43
2023-04-30T19:07:10.564Z,13.39
2023-04-30T19:09:37.494Z,13.36
2023-04-30T19:12:04.600Z,13.38
2023-04-30T19:14:31.823Z,13.44
2023-04-30T19:17:00.373Z,13.45
2023-04-30T19:19:27.990Z,13.43
2023-04-30T19:21:54.924Z,13.41
2023-04-30T19:24:22.787Z,13.37
2023-04-30T19:26:50.974Z,13.32
2023-04-30T19:29:19.848Z,13.32
2023-04-30T19:31:46.956Z,13.36
2023-04-30T19:34:14.236Z,13.35
2023-04-30T19:36:44.192Z,13.31
2023-04-30T19:39:12.058Z,13.26
2023-04-30T19:41:39.305Z,13.23
2023-04-30T19:44:07.891Z,13.19
2023-04-30T19:46:35.132Z,13.21
2023-04-30T19:49:02.117Z,13.25
2023-04-30T19:51:29.048Z,13.25
2023-04-30T19:53:59.074Z,13.22
2023-04-30T19:56:26.536Z,13.20
2023-04-30T19:58:53.568Z,13.18
2023-04-30T20:01:20.542Z,13.15
2023-04-30T20:03:48.763Z,13.17
2023-04-30T20:06:15.902Z,13.20
2023-04-30T20:08:47.478Z,13.21
2023-04-30T20:11:14.879Z,13.19
2023-04-30T20:13:41.790Z,13.15
2023-04-30T20:16:12.687Z,13.12
2023-04-30T20:18:39.922Z,13.08
2023-04-30T20:21:06.937Z,13.11
2023-04-30T20:23:34.323Z,13.19
2023-04-30T20:26:06.177Z,13.22
2023-04-30T20:28:33.398Z,13.22
2023-04-30T20:31:00.912Z,13.17
2023-04-30T20:33:29.103Z,13.12
2023-04-30T20:35:58.173Z,13.07
2023-04-30T20:38:25.050Z,13.06
2023-04-30T20:40:52.036Z,13.09
2023-04-30T20:43:20.575Z,13.09
2023-04-30T20:45:48.525Z,13.07
2023-04-30T20:48:16.214Z,13.03
2023-04-30T20:50:44.456Z,12.99
2023-04-30T20:53:12.554Z,12.94
2023-04-30T20:55:43.791Z,12.89
2023-04-30T20:58:12.886Z,12.89
2023-04-30T21:00:39.846Z,12.94
